Capron, Oklahoma
Current Conditions -  °F | °C
As of 7:35 PM on Monday 22 Dec 2014 (Local Time) from KAVK Reporting Station
Clear Clear  
Wind Chill: 33°   Ceiling: Unl
Heat Index: 37°   Visibility: 10mi
Dew Point: 32°   Wind: 6mph
Humidity: 81%   Direction: 250°WSW
Pressure: 29.67"   Gusts: NA
Location:  36.8367°N, 98.8022°W
Report Text: KAVK 230135Z AUTO 25005KT 10SM CLR 03/00 A2967 RMK AO2
Loading
Personal Weather Stations






























Interactive Weather Map New forecast layout! Learn more

10-Day Weather Forecast

Advertisements
Track Severe Weather on mobile